sensor_id;sensor_type;location;lat;lon;timestamp;P1;durP1;ratioP1;P2;durP2;ratioP2
11328;SDS011;5719;42.714;23.732;2023-03-31T00:01:05;7.18;;;3.40;;
11328;SDS011;5719;42.714;23.732;2023-03-31T00:03:32;7.63;;;3.60;;
11328;SDS011;5719;42.714;23.732;2023-03-31T00:06:03;7.53;;;3.63;;
11328;SDS011;5719;42.714;23.732;2023-03-31T00:08:31;7.05;;;4.03;;
11328;SDS011;5719;42.714;23.732;2023-03-31T00:11:01;4.68;;;3.20;;
11328;SDS011;5719;42.714;23.732;2023-03-31T00:13:31;5.95;;;3.35;;
11328;SDS011;5719;42.714;23.732;2023-03-31T00:15:58;6.22;;;3.13;;
11328;SDS011;5719;42.714;23.732;2023-03-31T00:18:27;5.13;;;3.17;;
11328;SDS011;5719;42.714;23.732;2023-03-31T00:20:58;7.25;;;3.47;;
11328;SDS011;5719;42.714;23.732;2023-03-31T00:23:32;5.53;;;3.00;;
11328;SDS011;5719;42.714;23.732;2023-03-31T00:25:59;5.18;;;3.10;;
11328;SDS011;5719;42.714;23.732;2023-03-31T00:28:26;7.50;;;3.70;;
11328;SDS011;5719;42.714;23.732;2023-03-31T00:30:59;6.05;;;3.83;;
11328;SDS011;5719;42.714;23.732;2023-03-31T00:33:27;6.25;;;4.68;;
11328;SDS011;5719;42.714;23.732;2023-03-31T00:35:55;6.32;;;3.83;;
11328;SDS011;5719;42.714;23.732;2023-03-31T00:38:26;6.60;;;3.83;;
11328;SDS011;5719;42.714;23.732;2023-03-31T00:40:54;10.93;;;4.28;;
11328;SDS011;5719;42.714;23.732;2023-03-31T00:43:26;6.28;;;4.25;;
11328;SDS011;5719;42.714;23.732;2023-03-31T00:46:05;9.57;;;4.50;;
11328;SDS011;5719;42.714;23.732;2023-03-31T00:48:40;8.50;;;4.40;;
11328;SDS011;5719;42.714;23.732;2023-03-31T00:51:12;6.47;;;3.92;;
11328;SDS011;5719;42.714;23.732;2023-03-31T00:53:40;5.95;;;3.92;;
11328;SDS011;5719;42.714;23.732;2023-03-31T00:56:08;8.65;;;4.28;;
11328;SDS011;5719;42.714;23.732;2023-03-31T00:58:39;7.47;;;4.30;;
11328;SDS011;5719;42.714;23.732;2023-03-31T01:01:12;6.88;;;3.92;;
11328;SDS011;5719;42.714;23.732;2023-03-31T01:03:42;10.20;;;4.18;;
11328;SDS011;5719;42.714;23.732;2023-03-31T01:06:10;6.60;;;3.88;;
11328;SDS011;5719;42.714;23.732;2023-03-31T01:08:38;8.57;;;3.92;;
11328;SDS011;5719;42.714;23.732;2023-03-31T01:11:08;8.82;;;4.07;;
11328;SDS011;5719;42.714;23.732;2023-03-31T01:13:38;5.25;;;3.63;;
11328;SDS011;5719;42.714;23.732;2023-03-31T01:16:06;4.68;;;3.63;;
11328;SDS011;5719;42.714;23.732;2023-03-31T01:18:34;4.63;;;3.60;;
11328;SDS011;5719;42.714;23.732;2023-03-31T01:24:34;5.40;;;3.35;;
11328;SDS011;5719;42.714;23.732;2023-03-31T01:30:30;6.97;;;3.57;;
11328;SDS011;5719;42.714;23.732;2023-03-31T01:36:30;7.63;;;3.55;;
11328;SDS011;5719;42.714;23.732;2023-03-31T01:42:34;4.80;;;3.33;;
11328;SDS011;5719;42.714;23.732;2023-03-31T01:45:06;5.45;;;3.75;;
11328;SDS011;5719;42.714;23.732;2023-03-31T01:47:43;8.13;;;3.55;;
11328;SDS011;5719;42.714;23.732;2023-03-31T01:52:51;8.80;;;3.65;;
11328;SDS011;5719;42.714;23.732;2023-03-31T01:55:27;6.18;;;3.70;;
11328;SDS011;5719;42.714;23.732;2023-03-31T01:58:01;6.47;;;3.97;;
11328;SDS011;5719;42.714;23.732;2023-03-31T02:00:33;7.80;;;3.97;;
11328;SDS011;5719;42.714;23.732;2023-03-31T02:03:05;6.13;;;3.63;;
11328;SDS011;5719;42.714;23.732;2023-03-31T02:05:37;6.60;;;4.70;;
11328;SDS011;5719;42.714;23.732;2023-03-31T02:08:09;8.95;;;4.38;;
11328;SDS011;5719;42.714;23.732;2023-03-31T02:10:41;9.60;;;5.20;;
11328;SDS011;5719;42.714;23.732;2023-03-31T02:13:10;9.88;;;5.85;;
11328;SDS011;5719;42.714;23.732;2023-03-31T02:15:40;13.38;;;6.88;;
11328;SDS011;5719;42.714;23.732;2023-03-31T02:18:12;11.73;;;4.88;;
11328;SDS011;5719;42.714;23.732;2023-03-31T02:20:43;8.68;;;5.38;;
11328;SDS011;5719;42.714;23.732;2023-03-31T02:23:14;9.48;;;4.72;;
11328;SDS011;5719;42.714;23.732;2023-03-31T02:25:48;7.75;;;4.18;;
11328;SDS011;5719;42.714;23.732;2023-03-31T02:28:18;6.00;;;3.95;;
11328;SDS011;5719;42.714;23.732;2023-03-31T02:30:49;7.55;;;3.90;;
11328;SDS011;5719;42.714;23.732;2023-03-31T02:33:21;5.88;;;3.70;;
11328;SDS011;5719;42.714;23.732;2023-03-31T02:35:48;8.05;;;3.92;;
11328;SDS011;5719;42.714;23.732;2023-03-31T02:38:15;7.38;;;3.90;;
11328;SDS011;5719;42.714;23.732;2023-03-31T02:40:42;7.03;;;3.72;;
11328;SDS011;5719;42.714;23.732;2023-03-31T02:43:10;6.50;;;4.05;;
11328;SDS011;5719;42.714;23.732;2023-03-31T02:45:39;5.05;;;3.83;;
11328;SDS011;5719;42.714;23.732;2023-03-31T02:48:10;6.45;;;3.90;;
11328;SDS011;5719;42.714;23.732;2023-03-31T02:50:55;5.07;;;3.70;;
11328;SDS011;5719;42.714;23.732;2023-03-31T02:53:37;4.90;;;3.83;;
11328;SDS011;5719;42.714;23.732;2023-03-31T02:56:14;4.07;;;3.67;;
11328;SDS011;5719;42.714;23.732;2023-03-31T02:59:15;8.55;;;4.55;;
11328;SDS011;5719;42.714;23.732;2023-03-31T03:02:05;6.10;;;3.95;;
11328;SDS011;5719;42.714;23.732;2023-03-31T03:07:30;7.50;;;3.65;;
11328;SDS011;5719;42.714;23.732;2023-03-31T03:10:03;8.07;;;4.10;;
11328;SDS011;5719;42.714;23.732;2023-03-31T03:12:36;6.10;;;3.80;;
11328;SDS011;5719;42.714;23.732;2023-03-31T03:15:15;6.15;;;3.80;;
11328;SDS011;5719;42.714;23.732;2023-03-31T03:17:49;5.32;;;3.92;;
11328;SDS011;5719;42.714;23.732;2023-03-31T03:20:18;6.18;;;4.43;;
11328;SDS011;5719;42.714;23.732;2023-03-31T03:22:46;5.25;;;4.00;;
11328;SDS011;5719;42.714;23.732;2023-03-31T03:25:13;7.38;;;4.10;;
11328;SDS011;5719;42.714;23.732;2023-03-31T03:27:42;7.97;;;4.22;;
11328;SDS011;5719;42.714;23.732;2023-03-31T03:30:10;6.43;;;4.20;;
11328;SDS011;5719;42.714;23.732;2023-03-31T03:32:39;6.70;;;3.78;;
11328;SDS011;5719;42.714;23.732;2023-03-31T03:35:07;5.28;;;3.83;;
11328;SDS011;5719;42.714;23.732;2023-03-31T03:37:35;4.57;;;3.60;;
11328;SDS011;5719;42.714;23.732;2023-03-31T03:40:02;4.97;;;3.47;;
11328;SDS011;5719;42.714;23.732;2023-03-31T03:42:30;3.38;;;3.08;;
11328;SDS011;5719;42.714;23.732;2023-03-31T03:44:57;5.93;;;3.58;;
11328;SDS011;5719;42.714;23.732;2023-03-31T03:47:25;5.00;;;3.25;;
11328;SDS011;5719;42.714;23.732;2023-03-31T03:49:53;5.93;;;2.72;;
11328;SDS011;5719;42.714;23.732;2023-03-31T03:52:20;3.65;;;2.97;;
11328;SDS011;5719;42.714;23.732;2023-03-31T03:54:47;7.93;;;2.88;;
11328;SDS011;5719;42.714;23.732;2023-03-31T03:57:14;4.60;;;3.47;;
11328;SDS011;5719;42.714;23.732;2023-03-31T03:59:41;9.90;;;3.47;;
11328;SDS011;5719;42.714;23.732;2023-03-31T04:02:08;4.63;;;3.70;;
11328;SDS011;5719;42.714;23.732;2023-03-31T04:04:35;5.20;;;3.88;;
11328;SDS011;5719;42.714;23.732;2023-03-31T04:07:03;5.03;;;3.25;;
11328;SDS011;5719;42.714;23.732;2023-03-31T04:09:30;7.07;;;3.70;;
11328;SDS011;5719;42.714;23.732;2023-03-31T04:11:57;4.63;;;3.78;;
11328;SDS011;5719;42.714;23.732;2023-03-31T04:14:24;6.68;;;4.20;;
11328;SDS011;5719;42.714;23.732;2023-03-31T04:16:51;5.95;;;4.35;;
11328;SDS011;5719;42.714;23.732;2023-03-31T04:19:20;5.03;;;4.32;;
11328;SDS011;5719;42.714;23.732;2023-03-31T04:21:50;9.10;;;4.45;;
11328;SDS011;5719;42.714;23.732;2023-03-31T04:24:24;6.85;;;4.55;;
11328;SDS011;5719;42.714;23.732;2023-03-31T04:26:54;4.45;;;3.50;;
11328;SDS011;5719;42.714;23.732;2023-03-31T04:29:21;7.05;;;4.28;;
11328;SDS011;5719;42.714;23.732;2023-03-31T04:31:50;6.00;;;4.00;;
11328;SDS011;5719;42.714;23.732;2023-03-31T04:34:18;5.10;;;3.30;;
11328;SDS011;5719;42.714;23.732;2023-03-31T04:36:46;9.70;;;4.43;;
11328;SDS011;5719;42.714;23.732;2023-03-31T04:39:14;7.90;;;4.47;;
11328;SDS011;5719;42.714;23.732;2023-03-31T04:41:43;9.57;;;5.72;;
11328;SDS011;5719;42.714;23.732;2023-03-31T04:44:10;13.70;;;5.60;;
11328;SDS011;5719;42.714;23.732;2023-03-31T04:46:36;11.52;;;5.25;;
11328;SDS011;5719;42.714;23.732;2023-03-31T04:49:03;9.50;;;5.43;;
11328;SDS011;5719;42.714;23.732;2023-03-31T04:51:30;6.82;;;4.95;;
11328;SDS011;5719;42.714;23.732;2023-03-31T04:53:57;5.05;;;4.53;;
11328;SDS011;5719;42.714;23.732;2023-03-31T04:56:24;9.45;;;4.50;;
11328;SDS011;5719;42.714;23.732;2023-03-31T04:58:53;5.70;;;4.20;;
11328;SDS011;5719;42.714;23.732;2023-03-31T05:01:20;5.40;;;4.03;;
11328;SDS011;5719;42.714;23.732;2023-03-31T05:03:47;7.72;;;4.53;;
11328;SDS011;5719;42.714;23.732;2023-03-31T05:06:14;6.60;;;4.53;;
11328;SDS011;5719;42.714;23.732;2023-03-31T05:08:42;6.20;;;4.10;;
11328;SDS011;5719;42.714;23.732;2023-03-31T05:11:10;9.43;;;4.57;;
11328;SDS011;5719;42.714;23.732;2023-03-31T05:13:37;9.90;;;4.80;;
11328;SDS011;5719;42.714;23.732;2023-03-31T05:16:09;10.25;;;7.55;;
11328;SDS011;5719;42.714;23.732;2023-03-31T05:18:38;9.18;;;7.28;;
11328;SDS011;5719;42.714;23.732;2023-03-31T05:21:09;11.05;;;7.13;;
11328;SDS011;5719;42.714;23.732;2023-03-31T05:23:37;11.27;;;7.20;;
11328;SDS011;5719;42.714;23.732;2023-03-31T05:26:04;8.63;;;5.90;;
11328;SDS011;5719;42.714;23.732;2023-03-31T05:28:32;7.70;;;5.63;;
11328;SDS011;5719;42.714;23.732;2023-03-31T05:30:59;6.57;;;4.80;;
11328;SDS011;5719;42.714;23.732;2023-03-31T05:33:28;6.65;;;4.55;;
11328;SDS011;5719;42.714;23.732;2023-03-31T05:35:55;6.65;;;4.30;;
11328;SDS011;5719;42.714;23.732;2023-03-31T05:38:24;8.25;;;4.60;;
11328;SDS011;5719;42.714;23.732;2023-03-31T05:40:53;6.10;;;4.10;;
11328;SDS011;5719;42.714;23.732;2023-03-31T05:43:20;4.85;;;4.35;;
11328;SDS011;5719;42.714;23.732;2023-03-31T05:45:47;6.00;;;4.35;;
11328;SDS011;5719;42.714;23.732;2023-03-31T05:48:14;4.75;;;4.07;;
11328;SDS011;5719;42.714;23.732;2023-03-31T05:50:43;5.03;;;3.70;;
11328;SDS011;5719;42.714;23.732;2023-03-31T05:53:10;5.97;;;4.38;;
11328;SDS011;5719;42.714;23.732;2023-03-31T05:55:37;6.68;;;3.88;;
11328;SDS011;5719;42.714;23.732;2023-03-31T05:58:04;4.20;;;3.72;;
11328;SDS011;5719;42.714;23.732;2023-03-31T06:00:32;5.85;;;3.95;;
11328;SDS011;5719;42.714;23.732;2023-03-31T06:03:00;5.30;;;3.83;;
11328;SDS011;5719;42.714;23.732;2023-03-31T06:05:27;5.85;;;3.90;;
11328;SDS011;5719;42.714;23.732;2023-03-31T06:07:56;3.90;;;3.55;;
11328;SDS011;5719;42.714;23.732;2023-03-31T06:10:23;5.88;;;3.58;;
11328;SDS011;5719;42.714;23.732;2023-03-31T06:12:50;5.82;;;4.28;;
11328;SDS011;5719;42.714;23.732;2023-03-31T06:15:17;7.03;;;4.18;;
11328;SDS011;5719;42.714;23.732;2023-03-31T06:17:44;6.80;;;4.45;;
11328;SDS011;5719;42.714;23.732;2023-03-31T06:20:11;4.43;;;3.47;;
11328;SDS011;5719;42.714;23.732;2023-03-31T06:22:38;6.47;;;3.40;;
11328;SDS011;5719;42.714;23.732;2023-03-31T06:25:06;6.68;;;3.58;;
11328;SDS011;5719;42.714;23.732;2023-03-31T06:27:34;5.60;;;3.53;;
11328;SDS011;5719;42.714;23.732;2023-03-31T06:30:01;5.63;;;3.17;;
11328;SDS011;5719;42.714;23.732;2023-03-31T06:32:28;7.43;;;4.00;;
11328;SDS011;5719;42.714;23.732;2023-03-31T06:34:54;9.07;;;3.75;;
11328;SDS011;5719;42.714;23.732;2023-03-31T06:37:21;7.25;;;3.60;;
11328;SDS011;5719;42.714;23.732;2023-03-31T06:39:48;7.22;;;3.50;;
11328;SDS011;5719;42.714;23.732;2023-03-31T06:42:16;3.83;;;2.90;;
11328;SDS011;5719;42.714;23.732;2023-03-31T06:44:43;5.03;;;3.50;;
11328;SDS011;5719;42.714;23.732;2023-03-31T06:47:10;5.30;;;3.53;;
11328;SDS011;5719;42.714;23.732;2023-03-31T06:49:37;7.57;;;3.42;;
11328;SDS011;5719;42.714;23.732;2023-03-31T06:52:04;7.20;;;3.20;;
11328;SDS011;5719;42.714;23.732;2023-03-31T06:54:31;5.50;;;2.90;;
11328;SDS011;5719;42.714;23.732;2023-03-31T06:56:58;5.45;;;3.08;;
11328;SDS011;5719;42.714;23.732;2023-03-31T06:59:26;4.25;;;2.88;;
11328;SDS011;5719;42.714;23.732;2023-03-31T07:01:53;4.50;;;3.10;;
11328;SDS011;5719;42.714;23.732;2023-03-31T07:04:20;10.75;;;3.78;;
11328;SDS011;5719;42.714;23.732;2023-03-31T07:06:47;6.30;;;3.28;;
11328;SDS011;5719;42.714;23.732;2023-03-31T07:09:14;10.40;;;4.10;;
11328;SDS011;5719;42.714;23.732;2023-03-31T07:11:42;8.95;;;3.88;;
11328;SDS011;5719;42.714;23.732;2023-03-31T07:14:09;9.23;;;3.75;;
11328;SDS011;5719;42.714;23.732;2023-03-31T07:16:37;9.27;;;4.28;;
11328;SDS011;5719;42.714;23.732;2023-03-31T07:19:05;8.68;;;4.10;;
11328;SDS011;5719;42.714;23.732;2023-03-31T07:21:35;9.32;;;4.07;;
11328;SDS011;5719;42.714;23.732;2023-03-31T07:36:19;10.43;;;3.97;;
11328;SDS011;5719;42.714;23.732;2023-03-31T07:38:47;7.85;;;3.70;;
11328;SDS011;5719;42.714;23.732;2023-03-31T07:41:16;11.98;;;4.47;;
11328;SDS011;5719;42.714;23.732;2023-03-31T07:43:45;7.38;;;3.40;;
11328;SDS011;5719;42.714;23.732;2023-03-31T07:46:14;10.98;;;4.15;;
11328;SDS011;5719;42.714;23.732;2023-03-31T07:48:42;12.20;;;4.65;;
11328;SDS011;5719;42.714;23.732;2023-03-31T07:51:10;10.98;;;4.43;;
11328;SDS011;5719;42.714;23.732;2023-03-31T07:53:41;9.02;;;3.88;;
11328;SDS011;5719;42.714;23.732;2023-03-31T07:56:08;8.90;;;3.55;;
11328;SDS011;5719;42.714;23.732;2023-03-31T07:58:35;7.03;;;3.10;;
11328;SDS011;5719;42.714;23.732;2023-03-31T08:01:02;11.60;;;4.32;;
11328;SDS011;5719;42.714;23.732;2023-03-31T08:03:29;9.65;;;3.70;;
11328;SDS011;5719;42.714;23.732;2023-03-31T08:05:58;12.35;;;4.20;;
11328;SDS011;5719;42.714;23.732;2023-03-31T08:08:25;7.57;;;3.72;;
11328;SDS011;5719;42.714;23.732;2023-03-31T08:10:54;9.38;;;4.93;;
11328;SDS011;5719;42.714;23.732;2023-03-31T08:13:21;7.50;;;3.40;;
11328;SDS011;5719;42.714;23.732;2023-03-31T08:15:48;9.43;;;3.47;;
11328;SDS011;5719;42.714;23.732;2023-03-31T08:18:15;7.43;;;3.08;;
11328;SDS011;5719;42.714;23.732;2023-03-31T08:20:41;5.85;;;2.80;;
11328;SDS011;5719;42.714;23.732;2023-03-31T08:23:09;8.43;;;2.85;;
11328;SDS011;5719;42.714;23.732;2023-03-31T08:25:36;7.95;;;2.63;;
11328;SDS011;5719;42.714;23.732;2023-03-31T08:28:05;5.47;;;2.63;;
11328;SDS011;5719;42.714;23.732;2023-03-31T08:30:35;7.78;;;2.40;;
11328;SDS011;5719;42.714;23.732;2023-03-31T08:33:03;4.63;;;2.85;;
11328;SDS011;5719;42.714;23.732;2023-03-31T08:35:31;9.50;;;2.70;;
11328;SDS011;5719;42.714;23.732;2023-03-31T08:37:58;6.43;;;3.03;;
11328;SDS011;5719;42.714;23.732;2023-03-31T08:40:26;10.00;;;3.00;;
11328;SDS011;5719;42.714;23.732;2023-03-31T08:42:55;9.45;;;2.72;;
11328;SDS011;5719;42.714;23.732;2023-03-31T08:45:30;11.60;;;3.00;;
11328;SDS011;5719;42.714;23.732;2023-03-31T08:48:01;7.43;;;2.58;;
11328;SDS011;5719;42.714;23.732;2023-03-31T08:50:35;8.73;;;2.70;;
11328;SDS011;5719;42.714;23.732;2023-03-31T08:53:12;10.85;;;2.97;;
11328;SDS011;5719;42.714;23.732;2023-03-31T08:55:49;5.07;;;2.50;;
11328;SDS011;5719;42.714;23.732;2023-03-31T08:58:21;6.97;;;2.63;;
11328;SDS011;5719;42.714;23.732;2023-03-31T09:00:59;6.28;;;2.72;;
11328;SDS011;5719;42.714;23.732;2023-03-31T09:03:32;8.32;;;2.92;;
11328;SDS011;5719;42.714;23.732;2023-03-31T09:06:06;7.97;;;2.35;;
11328;SDS011;5719;42.714;23.732;2023-03-31T09:08:40;9.55;;;3.22;;
11328;SDS011;5719;42.714;23.732;2023-03-31T09:11:12;7.18;;;3.15;;
11328;SDS011;5719;42.714;23.732;2023-03-31T09:13:57;11.13;;;3.80;;
11328;SDS011;5719;42.714;23.732;2023-03-31T09:48:06;7.38;;;2.38;;
11328;SDS011;5719;42.714;23.732;2023-03-31T09:50:41;7.50;;;2.25;;
11328;SDS011;5719;42.714;23.732;2023-03-31T09:53:13;9.30;;;2.40;;
11328;SDS011;5719;42.714;23.732;2023-03-31T09:55:46;10.20;;;2.78;;
11328;SDS011;5719;42.714;23.732;2023-03-31T09:58:18;6.88;;;2.72;;
11328;SDS011;5719;42.714;23.732;2023-03-31T10:00:55;4.20;;;1.98;;
11328;SDS011;5719;42.714;23.732;2023-03-31T10:03:26;5.03;;;1.70;;
11328;SDS011;5719;42.714;23.732;2023-03-31T10:05:54;5.80;;;2.50;;
11328;SDS011;5719;42.714;23.732;2023-03-31T10:08:24;9.23;;;2.00;;
11328;SDS011;5719;42.714;23.732;2023-03-31T10:10:55;5.53;;;2.00;;
11328;SDS011;5719;42.714;23.732;2023-03-31T10:13:34;7.72;;;3.70;;
11328;SDS011;5719;42.714;23.732;2023-03-31T10:16:09;10.98;;;2.63;;
11328;SDS011;5719;42.714;23.732;2023-03-31T10:18:41;8.77;;;2.75;;
11328;SDS011;5719;42.714;23.732;2023-03-31T10:21:15;7.38;;;2.50;;
11328;SDS011;5719;42.714;23.732;2023-03-31T10:23:46;6.18;;;2.22;;
11328;SDS011;5719;42.714;23.732;2023-03-31T10:26:16;4.97;;;2.10;;
11328;SDS011;5719;42.714;23.732;2023-03-31T10:28:46;6.50;;;2.60;;
11328;SDS011;5719;42.714;23.732;2023-03-31T10:31:17;16.05;;;5.38;;
11328;SDS011;5719;42.714;23.732;2023-03-31T10:33:47;8.30;;;2.63;;
11328;SDS011;5719;42.714;23.732;2023-03-31T10:36:18;8.32;;;2.65;;
11328;SDS011;5719;42.714;23.732;2023-03-31T10:38:49;4.30;;;2.13;;
11328;SDS011;5719;42.714;23.732;2023-03-31T10:41:17;4.97;;;1.80;;
11328;SDS011;5719;42.714;23.732;2023-03-31T10:43:48;7.43;;;2.00;;
11328;SDS011;5719;42.714;23.732;2023-03-31T10:46:16;5.60;;;2.97;;
11328;SDS011;5719;42.714;23.732;2023-03-31T10:48:44;6.90;;;2.65;;
11328;SDS011;5719;42.714;23.732;2023-03-31T10:51:15;6.80;;;3.38;;
11328;SDS011;5719;42.714;23.732;2023-03-31T10:53:44;16.90;;;3.08;;
11328;SDS011;5719;42.714;23.732;2023-03-31T10:56:24;5.65;;;2.05;;
11328;SDS011;5719;42.714;23.732;2023-03-31T10:59:10;6.57;;;2.10;;
11328;SDS011;5719;42.714;23.732;2023-03-31T11:01:51;6.85;;;2.30;;
11328;SDS011;5719;42.714;23.732;2023-03-31T11:04:38;13.02;;;4.00;;
11328;SDS011;5719;42.714;23.732;2023-03-31T11:07:15;5.53;;;1.88;;
11328;SDS011;5719;42.714;23.732;2023-03-31T11:09:55;4.07;;;1.80;;
11328;SDS011;5719;42.714;23.732;2023-03-31T11:12:32;8.40;;;2.03;;
11328;SDS011;5719;42.714;23.732;2023-03-31T11:15:09;7.95;;;2.53;;
11328;SDS011;5719;42.714;23.732;2023-03-31T11:17:50;10.10;;;2.20;;
11328;SDS011;5719;42.714;23.732;2023-03-31T11:20:27;13.77;;;2.88;;
11328;SDS011;5719;42.714;23.732;2023-03-31T11:23:03;4.88;;;2.90;;
11328;SDS011;5719;42.714;23.732;2023-03-31T11:25:37;9.20;;;2.40;;
11328;SDS011;5719;42.714;23.732;2023-03-31T11:28:20;11.38;;;2.67;;
11328;SDS011;5719;42.714;23.732;2023-03-31T11:33:30;7.70;;;3.08;;
11328;SDS011;5719;42.714;23.732;2023-03-31T11:36:06;8.70;;;2.40;;
11328;SDS011;5719;42.714;23.732;2023-03-31T11:38:50;12.95;;;3.88;;
11328;SDS011;5719;42.714;23.732;2023-03-31T11:41:26;15.77;;;5.15;;
11328;SDS011;5719;42.714;23.732;2023-03-31T11:43:59;11.60;;;3.97;;
11328;SDS011;5719;42.714;23.732;2023-03-31T11:46:30;24.60;;;6.47;;
11328;SDS011;5719;42.714;23.732;2023-03-31T11:49:01;14.10;;;5.57;;
11328;SDS011;5719;42.714;23.732;2023-03-31T11:51:33;5.55;;;3.30;;
11328;SDS011;5719;42.714;23.732;2023-03-31T11:54:10;7.07;;;3.15;;
11328;SDS011;5719;42.714;23.732;2023-03-31T11:56:43;7.20;;;2.30;;
11328;SDS011;5719;42.714;23.732;2023-03-31T11:59:13;8.40;;;2.83;;
11328;SDS011;5719;42.714;23.732;2023-03-31T12:01:43;8.77;;;2.78;;
11328;SDS011;5719;42.714;23.732;2023-03-31T12:04:18;7.47;;;2.78;;
11328;SDS011;5719;42.714;23.732;2023-03-31T12:06:53;7.63;;;2.47;;
11328;SDS011;5719;42.714;23.732;2023-03-31T12:12:00;6.80;;;2.92;;
11328;SDS011;5719;42.714;23.732;2023-03-31T12:14:32;8.00;;;2.73;;
11328;SDS011;5719;42.714;23.732;2023-03-31T12:17:07;8.63;;;2.40;;
11328;SDS011;5719;42.714;23.732;2023-03-31T12:19:39;8.13;;;3.63;;
11328;SDS011;5719;42.714;23.732;2023-03-31T12:22:13;3.72;;;1.95;;
11328;SDS011;5719;42.714;23.732;2023-03-31T12:24:46;15.90;;;5.43;;
11328;SDS011;5719;42.714;23.732;2023-03-31T12:27:14;12.88;;;3.83;;
11328;SDS011;5719;42.714;23.732;2023-03-31T12:29:47;9.07;;;1.90;;
11328;SDS011;5719;42.714;23.732;2023-03-31T12:32:20;4.25;;;1.70;;
11328;SDS011;5719;42.714;23.732;2023-03-31T12:34:53;13.68;;;1.85;;
11328;SDS011;5719;42.714;23.732;2023-03-31T12:40:41;4.15;;;1.70;;
11328;SDS011;5719;42.714;23.732;2023-03-31T12:43:27;8.02;;;2.00;;
11328;SDS011;5719;42.714;23.732;2023-03-31T12:46:16;7.70;;;1.55;;
11328;SDS011;5719;42.714;23.732;2023-03-31T12:49:04;4.45;;;1.90;;
11328;SDS011;5719;42.714;23.732;2023-03-31T12:51:44;3.63;;;1.70;;
11328;SDS011;5719;42.714;23.732;2023-03-31T12:54:27;3.72;;;1.58;;
11328;SDS011;5719;42.714;23.732;2023-03-31T12:57:15;2.30;;;1.50;;
11328;SDS011;5719;42.714;23.732;2023-03-31T12:59:48;5.85;;;1.48;;
11328;SDS011;5719;42.714;23.732;2023-03-31T13:02:43;7.03;;;1.30;;
11328;SDS011;5719;42.714;23.732;2023-03-31T13:11:16;6.72;;;2.13;;
11328;SDS011;5719;42.714;23.732;2023-03-31T13:13:45;5.22;;;1.70;;
11328;SDS011;5719;42.714;23.732;2023-03-31T13:16:23;7.47;;;1.70;;
11328;SDS011;5719;42.714;23.732;2023-03-31T13:18:50;4.05;;;1.80;;
11328;SDS011;5719;42.714;23.732;2023-03-31T13:21:18;4.40;;;1.38;;
11328;SDS011;5719;42.714;23.732;2023-03-31T13:23:46;4.50;;;1.20;;
11328;SDS011;5719;42.714;23.732;2023-03-31T13:32:19;7.82;;;1.30;;
11328;SDS011;5719;42.714;23.732;2023-03-31T13:34:49;5.38;;;1.55;;
11328;SDS011;5719;42.714;23.732;2023-03-31T13:37:27;2.85;;;1.08;;
11328;SDS011;5719;42.714;23.732;2023-03-31T13:40:12;5.65;;;1.15;;
11328;SDS011;5719;42.714;23.732;2023-03-31T13:42:59;2.03;;;1.10;;
11328;SDS011;5719;42.714;23.732;2023-03-31T13:45:56;7.07;;;1.70;;
11328;SDS011;5719;42.714;23.732;2023-03-31T13:48:43;4.85;;;2.10;;
11328;SDS011;5719;42.714;23.732;2023-03-31T13:51:25;4.10;;;1.23;;
11328;SDS011;5719;42.714;23.732;2023-03-31T13:57:08;4.82;;;1.25;;
11328;SDS011;5719;42.714;23.732;2023-03-31T14:03:17;6.15;;;1.58;;
11328;SDS011;5719;42.714;23.732;2023-03-31T14:05:55;4.60;;;1.27;;
11328;SDS011;5719;42.714;23.732;2023-03-31T14:08:31;5.88;;;2.00;;
11328;SDS011;5719;42.714;23.732;2023-03-31T14:11:14;5.32;;;1.73;;
11328;SDS011;5719;42.714;23.732;2023-03-31T14:13:42;5.57;;;1.38;;
11328;SDS011;5719;42.714;23.732;2023-03-31T14:16:09;5.93;;;1.67;;
11328;SDS011;5719;42.714;23.732;2023-03-31T14:18:40;9.75;;;1.80;;
11328;SDS011;5719;42.714;23.732;2023-03-31T14:21:16;4.97;;;1.30;;
11328;SDS011;5719;42.714;23.732;2023-03-31T14:23:53;6.13;;;1.20;;
11328;SDS011;5719;42.714;23.732;2023-03-31T14:26:32;5.65;;;1.48;;
11328;SDS011;5719;42.714;23.732;2023-03-31T14:29:13;5.13;;;1.42;;
11328;SDS011;5719;42.714;23.732;2023-03-31T14:31:49;4.35;;;1.27;;
11328;SDS011;5719;42.714;23.732;2023-03-31T14:34:29;6.55;;;2.00;;
11328;SDS011;5719;42.714;23.732;2023-03-31T14:37:17;5.33;;;1.47;;
11328;SDS011;5719;42.714;23.732;2023-03-31T14:39:47;4.10;;;1.88;;
11328;SDS011;5719;42.714;23.732;2023-03-31T14:42:17;4.60;;;1.50;;
11328;SDS011;5719;42.714;23.732;2023-03-31T14:44:47;4.65;;;1.73;;
11328;SDS011;5719;42.714;23.732;2023-03-31T14:47:14;6.25;;;1.85;;
11328;SDS011;5719;42.714;23.732;2023-03-31T14:49:46;6.05;;;1.65;;
11328;SDS011;5719;42.714;23.732;2023-03-31T14:52:14;4.55;;;2.08;;
11328;SDS011;5719;42.714;23.732;2023-03-31T14:54:44;8.60;;;1.88;;
11328;SDS011;5719;42.714;23.732;2023-03-31T14:57:15;6.28;;;1.75;;
11328;SDS011;5719;42.714;23.732;2023-03-31T14:59:44;2.97;;;1.60;;
11328;SDS011;5719;42.714;23.732;2023-03-31T15:02:14;8.88;;;1.75;;
11328;SDS011;5719;42.714;23.732;2023-03-31T15:04:45;7.88;;;1.70;;
11328;SDS011;5719;42.714;23.732;2023-03-31T15:07:15;4.28;;;1.50;;
11328;SDS011;5719;42.714;23.732;2023-03-31T15:09:43;7.15;;;1.38;;
11328;SDS011;5719;42.714;23.732;2023-03-31T15:12:15;6.00;;;2.30;;
11328;SDS011;5719;42.714;23.732;2023-03-31T15:14:47;5.57;;;1.40;;
11328;SDS011;5719;42.714;23.732;2023-03-31T15:17:17;5.95;;;1.75;;
11328;SDS011;5719;42.714;23.732;2023-03-31T15:19:52;6.25;;;1.73;;
11328;SDS011;5719;42.714;23.732;2023-03-31T15:22:20;6.90;;;1.60;;
11328;SDS011;5719;42.714;23.732;2023-03-31T15:24:47;3.63;;;1.55;;
11328;SDS011;5719;42.714;23.732;2023-03-31T15:27:14;5.95;;;1.65;;
11328;SDS011;5719;42.714;23.732;2023-03-31T15:29:47;7.20;;;2.28;;
11328;SDS011;5719;42.714;23.732;2023-03-31T15:32:16;5.88;;;2.00;;
11328;SDS011;5719;42.714;23.732;2023-03-31T15:34:49;5.68;;;1.50;;
11328;SDS011;5719;42.714;23.732;2023-03-31T15:37:19;5.70;;;2.08;;
11328;SDS011;5719;42.714;23.732;2023-03-31T15:39:53;5.97;;;1.88;;
11328;SDS011;5719;42.714;23.732;2023-03-31T15:42:21;9.63;;;1.80;;
11328;SDS011;5719;42.714;23.732;2023-03-31T15:44:53;10.55;;;2.20;;
11328;SDS011;5719;42.714;23.732;2023-03-31T15:47:22;4.07;;;1.83;;
11328;SDS011;5719;42.714;23.732;2023-03-31T15:49:56;6.55;;;2.08;;
11328;SDS011;5719;42.714;23.732;2023-03-31T15:52:26;7.55;;;1.65;;
11328;SDS011;5719;42.714;23.732;2023-03-31T15:54:57;9.50;;;1.75;;
11328;SDS011;5719;42.714;23.732;2023-03-31T15:57:29;5.32;;;1.48;;
11328;SDS011;5719;42.714;23.732;2023-03-31T15:59:58;5.38;;;1.75;;
11328;SDS011;5719;42.714;23.732;2023-03-31T16:02:26;4.47;;;1.50;;
11328;SDS011;5719;42.714;23.732;2023-03-31T16:05:05;6.10;;;1.95;;
11328;SDS011;5719;42.714;23.732;2023-03-31T16:07:45;8.90;;;1.70;;
11328;SDS011;5719;42.714;23.732;2023-03-31T16:10:14;9.75;;;2.78;;
11328;SDS011;5719;42.714;23.732;2023-03-31T16:12:47;4.35;;;1.65;;
11328;SDS011;5719;42.714;23.732;2023-03-31T16:15:20;5.85;;;1.77;;
11328;SDS011;5719;42.714;23.732;2023-03-31T16:17:55;5.63;;;1.75;;
11328;SDS011;5719;42.714;23.732;2023-03-31T16:20:29;6.10;;;1.70;;
11328;SDS011;5719;42.714;23.732;2023-03-31T16:23:01;3.80;;;2.05;;
11328;SDS011;5719;42.714;23.732;2023-03-31T16:25:38;9.05;;;1.73;;
11328;SDS011;5719;42.714;23.732;2023-03-31T16:28:06;4.00;;;1.92;;
11328;SDS011;5719;42.714;23.732;2023-03-31T16:30:34;7.10;;;2.22;;
11328;SDS011;5719;42.714;23.732;2023-03-31T16:33:02;6.97;;;3.50;;
11328;SDS011;5719;42.714;23.732;2023-03-31T16:35:33;7.20;;;2.70;;
11328;SDS011;5719;42.714;23.732;2023-03-31T16:38:02;10.10;;;5.05;;
11328;SDS011;5719;42.714;23.732;2023-03-31T16:40:30;11.23;;;5.18;;